sensor_id;sensor_type;location;lat;lon;timestamp;temperature;humidity
6627;DHT22;3349;49.830;8.748;2023-05-02T00:02:21;12.20;99.90
6627;DHT22;3349;49.830;8.748;2023-05-02T00:04:48;12.20;99.90
6627;DHT22;3349;49.830;8.748;2023-05-02T00:07:16;12.10;99.90
6627;DHT22;3349;49.830;8.748;2023-05-02T00:09:43;12.10;99.90
6627;DHT22;3349;49.830;8.748;2023-05-02T00:12:09;12.10;99.90
6627;DHT22;3349;49.830;8.748;2023-05-02T00:14:36;12.10;99.90
6627;DHT22;3349;49.830;8.748;2023-05-02T00:17:03;12.10;99.90
6627;DHT22;3349;49.830;8.748;2023-05-02T00:19:29;12.10;99.90
6627;DHT22;3349;49.830;8.748;2023-05-02T00:21:56;12.10;99.90
6627;DHT22;3349;49.830;8.748;2023-05-02T00:24:24;12.00;99.90
6627;DHT22;3349;49.830;8.748;2023-05-02T00:26:51;12.00;99.90
6627;DHT22;3349;49.830;8.748;2023-05-02T00:29:18;11.90;99.90
6627;DHT22;3349;49.830;8.748;2023-05-02T00:31:45;12.00;99.90
6627;DHT22;3349;49.830;8.748;2023-05-02T00:34:12;11.90;99.90
6627;DHT22;3349;49.830;8.748;2023-05-02T00:36:39;11.90;99.90
6627;DHT22;3349;49.830;8.748;2023-05-02T00:39:05;11.90;99.90
6627;DHT22;3349;49.830;8.748;2023-05-02T00:41:33;11.80;99.90
6627;DHT22;3349;49.830;8.748;2023-05-02T00:44:00;11.80;99.90
6627;DHT22;3349;49.830;8.748;2023-05-02T00:46:27;11.80;99.90
6627;DHT22;3349;49.830;8.748;2023-05-02T00:48:53;11.70;99.90
6627;DHT22;3349;49.830;8.748;2023-05-02T00:51:20;11.70;99.90
6627;DHT22;3349;49.830;8.748;2023-05-02T00:53:48;11.60;99.90
6627;DHT22;3349;49.830;8.748;2023-05-02T00:56:14;11.60;99.90
6627;DHT22;3349;49.830;8.748;2023-05-02T00:58:43;11.50;99.90
6627;DHT22;3349;49.830;8.748;2023-05-02T01:01:30;11.50;99.90
6627;DHT22;3349;49.830;8.748;2023-05-02T01:04:07;11.40;99.90
6627;DHT22;3349;49.830;8.748;2023-05-02T01:06:50;11.30;99.90
6627;DHT22;3349;49.830;8.748;2023-05-02T01:09:32;11.30;99.90
6627;DHT22;3349;49.830;8.748;2023-05-02T01:12:01;11.20;99.90
6627;DHT22;3349;49.830;8.748;2023-05-02T01:14:33;11.20;99.90
6627;DHT22;3349;49.830;8.748;2023-05-02T01:17:02;11.10;99.90
6627;DHT22;3349;49.830;8.748;2023-05-02T01:19:34;11.00;99.90
6627;DHT22;3349;49.830;8.748;2023-05-02T01:22:04;11.00;99.90
6627;DHT22;3349;49.830;8.748;2023-05-02T01:24:37;10.90;99.90
6627;DHT22;3349;49.830;8.748;2023-05-02T01:27:14;10.80;99.90
6627;DHT22;3349;49.830;8.748;2023-05-02T01:29:48;10.80;99.90
6627;DHT22;3349;49.830;8.748;2023-05-02T01:32:15;10.70;99.90
6627;DHT22;3349;49.830;8.748;2023-05-02T01:34:45;10.60;99.90
6627;DHT22;3349;49.830;8.748;2023-05-02T01:37:13;10.50;99.90
6627;DHT22;3349;49.830;8.748;2023-05-02T01:39:41;10.50;99.90
6627;DHT22;3349;49.830;8.748;2023-05-02T01:42:10;10.40;99.90
6627;DHT22;3349;49.830;8.748;2023-05-02T01:44:39;10.40;99.90
6627;DHT22;3349;49.830;8.748;2023-05-02T01:47:09;10.40;99.90
6627;DHT22;3349;49.830;8.748;2023-05-02T01:49:37;10.40;99.90
6627;DHT22;3349;49.830;8.748;2023-05-02T01:52:05;10.40;99.90
6627;DHT22;3349;49.830;8.748;2023-05-02T01:54:36;10.30;99.90
6627;DHT22;3349;49.830;8.748;2023-05-02T01:57:05;10.20;99.90
6627;DHT22;3349;49.830;8.748;2023-05-02T01:59:34;10.10;99.90
6627;DHT22;3349;49.830;8.748;2023-05-02T02:02:03;10.10;99.90
6627;DHT22;3349;49.830;8.748;2023-05-02T02:04:34;10.00;99.90
6627;DHT22;3349;49.830;8.748;2023-05-02T02:07:05;9.90;99.90
6627;DHT22;3349;49.830;8.748;2023-05-02T02:09:32;9.90;99.90
6627;DHT22;3349;49.830;8.748;2023-05-02T02:12:03;9.90;99.90
6627;DHT22;3349;49.830;8.748;2023-05-02T02:14:34;9.80;99.90
6627;DHT22;3349;49.830;8.748;2023-05-02T02:17:05;9.80;99.90
6627;DHT22;3349;49.830;8.748;2023-05-02T02:19:36;9.70;99.90
6627;DHT22;3349;49.830;8.748;2023-05-02T02:22:07;9.60;99.90
6627;DHT22;3349;49.830;8.748;2023-05-02T02:24:34;9.60;99.90
6627;DHT22;3349;49.830;8.748;2023-05-02T02:27:02;9.60;99.90
6627;DHT22;3349;49.830;8.748;2023-05-02T02:29:29;9.60;99.90
6627;DHT22;3349;49.830;8.748;2023-05-02T02:31:55;9.50;99.90
6627;DHT22;3349;49.830;8.748;2023-05-02T02:34:22;9.50;99.90
6627;DHT22;3349;49.830;8.748;2023-05-02T02:36:54;9.40;99.90
6627;DHT22;3349;49.830;8.748;2023-05-02T02:39:32;9.40;99.90
6627;DHT22;3349;49.830;8.748;2023-05-02T02:42:05;9.40;99.90
6627;DHT22;3349;49.830;8.748;2023-05-02T02:44:39;9.40;99.90
6627;DHT22;3349;49.830;8.748;2023-05-02T02:47:10;9.40;99.90
6627;DHT22;3349;49.830;8.748;2023-05-02T02:49:46;9.50;99.90
6627;DHT22;3349;49.830;8.748;2023-05-02T02:52:22;9.40;99.90
6627;DHT22;3349;49.830;8.748;2023-05-02T02:54:56;9.60;99.90
6627;DHT22;3349;49.830;8.748;2023-05-02T02:57:27;9.70;99.90
6627;DHT22;3349;49.830;8.748;2023-05-02T03:00:01;9.70;99.90
6627;DHT22;3349;49.830;8.748;2023-05-02T03:02:31;9.80;99.90
6627;DHT22;3349;49.830;8.748;2023-05-02T03:05:00;9.80;99.90
6627;DHT22;3349;49.830;8.748;2023-05-02T03:07:29;9.80;99.90
6627;DHT22;3349;49.830;8.748;2023-05-02T03:09:57;9.80;99.90
6627;DHT22;3349;49.830;8.748;2023-05-02T03:12:23;9.80;99.90
6627;DHT22;3349;49.830;8.748;2023-05-02T03:14:50;9.80;99.90
6627;DHT22;3349;49.830;8.748;2023-05-02T03:17:18;9.60;99.90
6627;DHT22;3349;49.830;8.748;2023-05-02T03:19:44;9.40;99.90
6627;DHT22;3349;49.830;8.748;2023-05-02T03:22:11;9.30;99.90
6627;DHT22;3349;49.830;8.748;2023-05-02T03:24:40;9.20;99.90
6627;DHT22;3349;49.830;8.748;2023-05-02T03:27:06;9.20;99.90
6627;DHT22;3349;49.830;8.748;2023-05-02T03:29:33;9.10;99.90
6627;DHT22;3349;49.830;8.748;2023-05-02T03:32:00;9.10;99.90
6627;DHT22;3349;49.830;8.748;2023-05-02T03:34:26;9.00;99.90
6627;DHT22;3349;49.830;8.748;2023-05-02T03:36:53;8.90;99.90
6627;DHT22;3349;49.830;8.748;2023-05-02T03:39:20;9.00;99.90
6627;DHT22;3349;49.830;8.748;2023-05-02T03:41:48;9.10;99.90
6627;DHT22;3349;49.830;8.748;2023-05-02T03:44:15;9.10;99.90
6627;DHT22;3349;49.830;8.748;2023-05-02T03:46:41;9.20;99.90
6627;DHT22;3349;49.830;8.748;2023-05-02T03:49:08;9.20;99.90
6627;DHT22;3349;49.830;8.748;2023-05-02T03:51:35;9.20;99.90
6627;DHT22;3349;49.830;8.748;2023-05-02T03:54:02;9.20;99.90
6627;DHT22;3349;49.830;8.748;2023-05-02T03:56:28;9.40;99.90
6627;DHT22;3349;49.830;8.748;2023-05-02T03:58:56;9.40;99.90
6627;DHT22;3349;49.830;8.748;2023-05-02T04:01:23;9.50;99.90
6627;DHT22;3349;49.830;8.748;2023-05-02T04:03:51;9.60;99.90
6627;DHT22;3349;49.830;8.748;2023-05-02T04:06:18;9.70;99.90
6627;DHT22;3349;49.830;8.748;2023-05-02T04:08:44;9.70;99.90
6627;DHT22;3349;49.830;8.748;2023-05-02T04:11:11;9.80;99.90
6627;DHT22;3349;49.830;8.748;2023-05-02T04:13:38;9.90;99.90
6627;DHT22;3349;49.830;8.748;2023-05-02T04:16:06;9.90;99.90
6627;DHT22;3349;49.830;8.748;2023-05-02T04:18:33;9.90;99.90
6627;DHT22;3349;49.830;8.748;2023-05-02T04:20:59;9.90;99.90
6627;DHT22;3349;49.830;8.748;2023-05-02T04:23:26;10.00;99.90
6627;DHT22;3349;49.830;8.748;2023-05-02T04:25:53;10.00;99.90
6627;DHT22;3349;49.830;8.748;2023-05-02T04:28:20;10.00;99.90
6627;DHT22;3349;49.830;8.748;2023-05-02T04:30:47;10.10;99.90
6627;DHT22;3349;49.830;8.748;2023-05-02T04:33:16;10.10;99.90
6627;DHT22;3349;49.830;8.748;2023-05-02T04:35:43;10.20;99.90
6627;DHT22;3349;49.830;8.748;2023-05-02T04:38:09;10.20;99.90
6627;DHT22;3349;49.830;8.748;2023-05-02T04:40:36;10.20;99.90
6627;DHT22;3349;49.830;8.748;2023-05-02T04:43:03;10.30;99.90
6627;DHT22;3349;49.830;8.748;2023-05-02T04:45:30;10.30;99.90
6627;DHT22;3349;49.830;8.748;2023-05-02T04:47:56;10.30;99.90
6627;DHT22;3349;49.830;8.748;2023-05-02T04:50:25;10.30;99.90
6627;DHT22;3349;49.830;8.748;2023-05-02T04:52:52;10.30;99.90
6627;DHT22;3349;49.830;8.748;2023-05-02T04:55:19;10.30;99.90
6627;DHT22;3349;49.830;8.748;2023-05-02T04:57:46;10.40;99.90
6627;DHT22;3349;49.830;8.748;2023-05-02T05:00:13;10.40;99.90
6627;DHT22;3349;49.830;8.748;2023-05-02T05:02:40;10.40;99.90
6627;DHT22;3349;49.830;8.748;2023-05-02T05:05:07;10.50;99.90
6627;DHT22;3349;49.830;8.748;2023-05-02T05:07:35;10.50;99.90
6627;DHT22;3349;49.830;8.748;2023-05-02T05:10:02;10.60;99.90
6627;DHT22;3349;49.830;8.748;2023-05-02T05:12:29;10.60;99.90
6627;DHT22;3349;49.830;8.748;2023-05-02T05:14:56;10.60;99.90
6627;DHT22;3349;49.830;8.748;2023-05-02T05:17:22;10.60;99.90
6627;DHT22;3349;49.830;8.748;2023-05-02T05:19:49;10.60;99.90
6627;DHT22;3349;49.830;8.748;2023-05-02T05:22:16;10.60;99.90
6627;DHT22;3349;49.830;8.748;2023-05-02T05:24:51;10.60;99.90
6627;DHT22;3349;49.830;8.748;2023-05-02T05:27:18;10.60;99.90
6627;DHT22;3349;49.830;8.748;2023-05-02T05:29:44;10.70;99.90
6627;DHT22;3349;49.830;8.748;2023-05-02T05:32:11;10.70;99.90
6627;DHT22;3349;49.830;8.748;2023-05-02T05:34:38;10.70;99.90
6627;DHT22;3349;49.830;8.748;2023-05-02T05:37:04;10.70;99.90
6627;DHT22;3349;49.830;8.748;2023-05-02T05:39:31;10.80;99.90
6627;DHT22;3349;49.830;8.748;2023-05-02T05:42:00;10.80;99.90
6627;DHT22;3349;49.830;8.748;2023-05-02T05:44:28;10.90;99.90
6627;DHT22;3349;49.830;8.748;2023-05-02T05:46:56;10.90;99.90
6627;DHT22;3349;49.830;8.748;2023-05-02T05:49:22;10.90;99.90
6627;DHT22;3349;49.830;8.748;2023-05-02T05:51:49;11.00;99.90
6627;DHT22;3349;49.830;8.748;2023-05-02T05:54:16;10.90;99.90
6627;DHT22;3349;49.830;8.748;2023-05-02T05:56:43;11.00;99.90
6627;DHT22;3349;49.830;8.748;2023-05-02T05:59:11;11.00;99.90
6627;DHT22;3349;49.830;8.748;2023-05-02T06:01:38;11.10;99.90
6627;DHT22;3349;49.830;8.748;2023-05-02T06:04:05;11.20;99.90
6627;DHT22;3349;49.830;8.748;2023-05-02T06:06:32;11.30;99.90
6627;DHT22;3349;49.830;8.748;2023-05-02T06:08:59;11.30;99.90
6627;DHT22;3349;49.830;8.748;2023-05-02T06:11:26;11.40;99.90
6627;DHT22;3349;49.830;8.748;2023-05-02T06:13:53;11.40;99.90
6627;DHT22;3349;49.830;8.748;2023-05-02T06:16:21;11.40;99.90
6627;DHT22;3349;49.830;8.748;2023-05-02T06:18:50;11.40;99.90
6627;DHT22;3349;49.830;8.748;2023-05-02T06:21:18;11.50;99.90
6627;DHT22;3349;49.830;8.748;2023-05-02T06:23:45;11.50;99.90
6627;DHT22;3349;49.830;8.748;2023-05-02T06:26:12;11.60;99.90
6627;DHT22;3349;49.830;8.748;2023-05-02T06:28:39;11.50;99.90
6627;DHT22;3349;49.830;8.748;2023-05-02T06:31:06;11.50;99.90
6627;DHT22;3349;49.830;8.748;2023-05-02T06:33:34;11.60;99.90
6627;DHT22;3349;49.830;8.748;2023-05-02T06:36:01;11.70;99.90
6627;DHT22;3349;49.830;8.748;2023-05-02T06:38:28;11.80;99.90
6627;DHT22;3349;49.830;8.748;2023-05-02T06:40:55;12.00;99.90
6627;DHT22;3349;49.830;8.748;2023-05-02T06:43:22;12.00;99.90
6627;DHT22;3349;49.830;8.748;2023-05-02T06:45:51;12.10;99.90
6627;DHT22;3349;49.830;8.748;2023-05-02T06:48:18;12.10;99.90
6627;DHT22;3349;49.830;8.748;2023-05-02T06:50:47;12.20;99.90
6627;DHT22;3349;49.830;8.748;2023-05-02T06:53:14;12.30;99.90
6627;DHT22;3349;49.830;8.748;2023-05-02T06:55:41;12.50;99.90
6627;DHT22;3349;49.830;8.748;2023-05-02T06:58:07;12.70;99.00
6627;DHT22;3349;49.830;8.748;2023-05-02T07:00:34;12.90;98.50
6627;DHT22;3349;49.830;8.748;2023-05-02T07:03:01;13.00;96.00
6627;DHT22;3349;49.830;8.748;2023-05-02T07:05:28;13.10;95.50
6627;DHT22;3349;49.830;8.748;2023-05-02T07:07:57;13.10;95.80
6627;DHT22;3349;49.830;8.748;2023-05-02T07:10:24;13.20;95.00
6627;DHT22;3349;49.830;8.748;2023-05-02T07:12:50;13.30;94.60
6627;DHT22;3349;49.830;8.748;2023-05-02T07:15:17;13.30;93.20
6627;DHT22;3349;49.830;8.748;2023-05-02T07:17:44;13.40;93.30
6627;DHT22;3349;49.830;8.748;2023-05-02T07:20:12;13.40;92.60
6627;DHT22;3349;49.830;8.748;2023-05-02T07:22:40;13.60;92.40
6627;DHT22;3349;49.830;8.748;2023-05-02T07:25:08;13.80;90.30
6627;DHT22;3349;49.830;8.748;2023-05-02T07:27:35;14.00;87.40
6627;DHT22;3349;49.830;8.748;2023-05-02T07:30:02;14.10;86.80
6627;DHT22;3349;49.830;8.748;2023-05-02T07:32:30;14.10;86.90
6627;DHT22;3349;49.830;8.748;2023-05-02T07:34:56;14.00;82.50
6627;DHT22;3349;49.830;8.748;2023-05-02T07:37:23;14.00;79.60
6627;DHT22;3349;49.830;8.748;2023-05-02T07:39:50;13.80;80.40
6627;DHT22;3349;49.830;8.748;2023-05-02T07:42:18;14.00;81.10
6627;DHT22;3349;49.830;8.748;2023-05-02T07:44:45;14.00;78.30
6627;DHT22;3349;49.830;8.748;2023-05-02T07:47:11;14.20;78.00
6627;DHT22;3349;49.830;8.748;2023-05-02T07:49:38;14.40;75.90
6627;DHT22;3349;49.830;8.748;2023-05-02T07:52:04;14.20;73.50
6627;DHT22;3349;49.830;8.748;2023-05-02T07:54:31;14.10;73.70
6627;DHT22;3349;49.830;8.748;2023-05-02T07:56:58;14.00;74.00
6627;DHT22;3349;49.830;8.748;2023-05-02T07:59:29;14.00;76.10
6627;DHT22;3349;49.830;8.748;2023-05-02T08:01:56;14.10;75.40
6627;DHT22;3349;49.830;8.748;2023-05-02T08:04:23;14.10;75.30
6627;DHT22;3349;49.830;8.748;2023-05-02T08:06:49;14.00;75.30
6627;DHT22;3349;49.830;8.748;2023-05-02T08:09:16;14.00;75.50
6627;DHT22;3349;49.830;8.748;2023-05-02T08:11:43;13.90;74.10
6627;DHT22;3349;49.830;8.748;2023-05-02T08:14:09;13.90;76.10
6627;DHT22;3349;49.830;8.748;2023-05-02T08:16:37;13.80;76.10
6627;DHT22;3349;49.830;8.748;2023-05-02T08:19:04;13.70;76.60
6627;DHT22;3349;49.830;8.748;2023-05-02T08:21:31;13.70;77.70
6627;DHT22;3349;49.830;8.748;2023-05-02T08:23:58;13.90;77.90
6627;DHT22;3349;49.830;8.748;2023-05-02T08:26:25;14.00;76.60
6627;DHT22;3349;49.830;8.748;2023-05-02T08:28:52;14.00;75.00
6627;DHT22;3349;49.830;8.748;2023-05-02T08:31:20;14.00;73.60
6627;DHT22;3349;49.830;8.748;2023-05-02T08:33:48;14.00;72.90
6627;DHT22;3349;49.830;8.748;2023-05-02T08:36:16;14.10;72.40
6627;DHT22;3349;49.830;8.748;2023-05-02T08:38:44;14.30;72.10
6627;DHT22;3349;49.830;8.748;2023-05-02T08:41:12;14.60;69.60
6627;DHT22;3349;49.830;8.748;2023-05-02T08:43:39;14.90;68.10
6627;DHT22;3349;49.830;8.748;2023-05-02T08:46:09;15.20;66.10
6627;DHT22;3349;49.830;8.748;2023-05-02T08:48:37;16.50;62.20
6627;DHT22;3349;49.830;8.748;2023-05-02T08:51:11;16.60;57.90
6627;DHT22;3349;49.830;8.748;2023-05-02T08:53:38;16.70;56.40
6627;DHT22;3349;49.830;8.748;2023-05-02T08:56:07;16.30;56.70
6627;DHT22;3349;49.830;8.748;2023-05-02T08:58:34;16.00;57.10
6627;DHT22;3349;49.830;8.748;2023-05-02T09:01:02;16.30;56.40
6627;DHT22;3349;49.830;8.748;2023-05-02T09:03:31;16.30;55.50
6627;DHT22;3349;49.830;8.748;2023-05-02T09:06:04;16.40;55.20
6627;DHT22;3349;49.830;8.748;2023-05-02T09:08:32;16.10;55.00
6627;DHT22;3349;49.830;8.748;2023-05-02T09:11:00;15.90;55.80
6627;DHT22;3349;49.830;8.748;2023-05-02T09:13:31;15.50;57.40
6627;DHT22;3349;49.830;8.748;2023-05-02T09:15:59;15.10;58.90
6627;DHT22;3349;49.830;8.748;2023-05-02T09:18:28;15.10;60.80
6627;DHT22;3349;49.830;8.748;2023-05-02T09:20:58;15.00;60.80
6627;DHT22;3349;49.830;8.748;2023-05-02T09:23:37;14.80;60.50
6627;DHT22;3349;49.830;8.748;2023-05-02T09:26:10;14.70;60.80
6627;DHT22;3349;49.830;8.748;2023-05-02T09:28:39;14.90;60.60
6627;DHT22;3349;49.830;8.748;2023-05-02T09:31:07;14.90;60.20
6627;DHT22;3349;49.830;8.748;2023-05-02T09:33:35;14.70;60.40
6627;DHT22;3349;49.830;8.748;2023-05-02T09:36:02;14.80;60.90
6627;DHT22;3349;49.830;8.748;2023-05-02T09:38:28;15.10;61.30
6627;DHT22;3349;49.830;8.748;2023-05-02T09:40:56;15.10;60.80
6627;DHT22;3349;49.830;8.748;2023-05-02T09:43:23;15.30;59.90
6627;DHT22;3349;49.830;8.748;2023-05-02T09:45:56;15.50;59.10
6627;DHT22;3349;49.830;8.748;2023-05-02T09:48:25;15.40;58.50
6627;DHT22;3349;49.830;8.748;2023-05-02T09:50:51;15.30;58.50
6627;DHT22;3349;49.830;8.748;2023-05-02T09:53:19;15.20;58.30
6627;DHT22;3349;49.830;8.748;2023-05-02T09:55:45;15.10;58.90
6627;DHT22;3349;49.830;8.748;2023-05-02T09:58:21;15.10;59.40
6627;DHT22;3349;49.830;8.748;2023-05-02T10:00:49;15.00;60.40
6627;DHT22;3349;49.830;8.748;2023-05-02T10:03:16;15.00;60.20
6627;DHT22;3349;49.830;8.748;2023-05-02T10:05:44;14.90;60.60
6627;DHT22;3349;49.830;8.748;2023-05-02T10:08:12;14.90;60.60
6627;DHT22;3349;49.830;8.748;2023-05-02T10:10:41;14.80;60.50
6627;DHT22;3349;49.830;8.748;2023-05-02T10:13:09;14.60;60.30
6627;DHT22;3349;49.830;8.748;2023-05-02T10:15:42;14.60;60.40
6627;DHT22;3349;49.830;8.748;2023-05-02T10:18:13;14.70;60.40
6627;DHT22;3349;49.830;8.748;2023-05-02T10:20:43;14.70;60.40
6627;DHT22;3349;49.830;8.748;2023-05-02T10:23:14;14.80;60.50
6627;DHT22;3349;49.830;8.748;2023-05-02T10:25:41;14.90;59.10
6627;DHT22;3349;49.830;8.748;2023-05-02T10:28:09;15.20;59.10
6627;DHT22;3349;49.830;8.748;2023-05-02T10:30:36;15.20;57.20
6627;DHT22;3349;49.830;8.748;2023-05-02T10:33:05;15.50;57.30
6627;DHT22;3349;49.830;8.748;2023-05-02T10:35:31;15.60;56.70
6627;DHT22;3349;49.830;8.748;2023-05-02T10:37:59;15.80;56.30
6627;DHT22;3349;49.830;8.748;2023-05-02T10:40:27;16.20;55.30
6627;DHT22;3349;49.830;8.748;2023-05-02T10:42:54;16.50;53.90
6627;DHT22;3349;49.830;8.748;2023-05-02T10:45:31;16.70;52.30
6627;DHT22;3349;49.830;8.748;2023-05-02T10:48:16;17.00;51.60
6627;DHT22;3349;49.830;8.748;2023-05-02T10:50:48;17.70;50.60
6627;DHT22;3349;49.830;8.748;2023-05-02T10:53:37;19.10;47.80
6627;DHT22;3349;49.830;8.748;2023-05-02T10:56:16;18.80;46.80
6627;DHT22;3349;49.830;8.748;2023-05-02T10:58:45;18.00;46.60
6627;DHT22;3349;49.830;8.748;2023-05-02T11:01:35;17.70;47.70
6627;DHT22;3349;49.830;8.748;2023-05-02T11:04:08;17.40;48.90
6627;DHT22;3349;49.830;8.748;2023-05-02T11:07:15;17.30;49.30
6627;DHT22;3349;49.830;8.748;2023-05-02T11:09:33;16.90;49.60
6627;DHT22;3349;49.830;8.748;2023-05-02T11:12:00;17.20;48.70
6627;DHT22;3349;49.830;8.748;2023-05-02T11:14:46;17.60;48.50
6627;DHT22;3349;49.830;8.748;2023-05-02T11:17:14;17.90;47.90
6627;DHT22;3349;49.830;8.748;2023-05-02T11:22:59;19.00;45.80
6627;DHT22;3349;49.830;8.748;2023-05-02T11:25:47;20.00;43.80
6627;DHT22;3349;49.830;8.748;2023-05-02T11:28:47;20.40;42.40
6627;DHT22;3349;49.830;8.748;2023-05-02T11:34:40;21.10;39.70
6627;DHT22;3349;49.830;8.748;2023-05-02T11:37:13;20.40;40.40
6627;DHT22;3349;49.830;8.748;2023-05-02T11:39:42;19.90;41.20
6627;DHT22;3349;49.830;8.748;2023-05-02T11:42:09;19.50;41.20
6627;DHT22;3349;49.830;8.748;2023-05-02T11:44:56;18.90;41.90
6627;DHT22;3349;49.830;8.748;2023-05-02T11:47:24;18.10;43.80
6627;DHT22;3349;49.830;8.748;2023-05-02T11:49:53;17.50;45.20
6627;DHT22;3349;49.830;8.748;2023-05-02T11:52:21;17.40;45.40
6627;DHT22;3349;49.830;8.748;2023-05-02T11:54:52;17.30;46.30
6627;DHT22;3349;49.830;8.748;2023-05-02T11:57:19;17.50;46.50
6627;DHT22;3349;49.830;8.748;2023-05-02T11:59:50;17.70;46.60
6627;DHT22;3349;49.830;8.748;2023-05-02T12:02:17;18.80;45.20
6627;DHT22;3349;49.830;8.748;2023-05-02T12:04:44;20.70;42.10
6627;DHT22;3349;49.830;8.748;2023-05-02T12:07:10;21.90;38.80
6627;DHT22;3349;49.830;8.748;2023-05-02T12:09:50;22.50;37.00
6627;DHT22;3349;49.830;8.748;2023-05-02T12:12:19;23.20;35.30
6627;DHT22;3349;49.830;8.748;2023-05-02T12:14:45;24.20;33.30
6627;DHT22;3349;49.830;8.748;2023-05-02T12:17:12;25.20;33.00
6627;DHT22;3349;49.830;8.748;2023-05-02T12:19:39;26.30;29.40
6627;DHT22;3349;49.830;8.748;2023-05-02T12:22:06;25.80;29.40
6627;DHT22;3349;49.830;8.748;2023-05-02T12:24:33;24.20;29.60
6627;DHT22;3349;49.830;8.748;2023-05-02T12:27:12;24.00;31.50
6627;DHT22;3349;49.830;8.748;2023-05-02T12:29:40;24.60;31.20
6627;DHT22;3349;49.830;8.748;2023-05-02T12:32:07;24.50;30.10
6627;DHT22;3349;49.830;8.748;2023-05-02T12:34:35;24.10;30.10
6627;DHT22;3349;49.830;8.748;2023-05-02T12:37:02;23.40;31.40
6627;DHT22;3349;49.830;8.748;2023-05-02T12:39:35;22.70;32.60
6627;DHT22;3349;49.830;8.748;2023-05-02T12:42:10;21.90;33.00
6627;DHT22;3349;49.830;8.748;2023-05-02T12:44:37;21.30;34.50
6627;DHT22;3349;49.830;8.748;2023-05-02T12:47:05;21.00;34.80
6627;DHT22;3349;49.830;8.748;2023-05-02T12:49:32;20.60;34.40
6627;DHT22;3349;49.830;8.748;2023-05-02T12:51:59;20.00;35.90
6627;DHT22;3349;49.830;8.748;2023-05-02T12:54:25;19.90;36.40
6627;DHT22;3349;49.830;8.748;2023-05-02T12:56:52;20.30;36.90
6627;DHT22;3349;49.830;8.748;2023-05-02T12:59:28;20.10;34.10
6627;DHT22;3349;49.830;8.748;2023-05-02T13:01:55;20.00;35.80
6627;DHT22;3349;49.830;8.748;2023-05-02T13:04:32;19.70;36.80
6627;DHT22;3349;49.830;8.748;2023-05-02T13:06:59;19.20;37.60
6627;DHT22;3349;49.830;8.748;2023-05-02T13:09:26;19.00;37.90
6627;DHT22;3349;49.830;8.748;2023-05-02T13:11:53;19.00;38.40
6627;DHT22;3349;49.830;8.748;2023-05-02T13:14:19;18.80;37.70
6627;DHT22;3349;49.830;8.748;2023-05-02T13:16:48;18.70;36.80
6627;DHT22;3349;49.830;8.748;2023-05-02T13:19:17;18.70;36.80
6627;DHT22;3349;49.830;8.748;2023-05-02T13:21:44;18.70;36.70
6627;DHT22;3349;49.830;8.748;2023-05-02T13:24:11;18.40;36.00
6627;DHT22;3349;49.830;8.748;2023-05-02T13:26:37;18.10;36.90
6627;DHT22;3349;49.830;8.748;2023-05-02T13:29:04;18.00;36.50
6627;DHT22;3349;49.830;8.748;2023-05-02T13:31:31;17.80;36.90
6627;DHT22;3349;49.830;8.748;2023-05-02T13:33:59;17.90;37.20
6627;DHT22;3349;49.830;8.748;2023-05-02T13:36:26;17.80;38.30
6627;DHT22;3349;49.830;8.748;2023-05-02T13:38:52;18.10;38.50
6627;DHT22;3349;49.830;8.748;2023-05-02T13:41:19;18.30;39.10
6627;DHT22;3349;49.830;8.748;2023-05-02T13:43:48;18.50;41.00
6627;DHT22;3349;49.830;8.748;2023-05-02T13:46:15;18.60;40.60
6627;DHT22;3349;49.830;8.748;2023-05-02T13:48:41;18.40;39.90
6627;DHT22;3349;49.830;8.748;2023-05-02T13:51:09;18.40;40.50
6627;DHT22;3349;49.830;8.748;2023-05-02T13:53:36;18.30;41.30
6627;DHT22;3349;49.830;8.748;2023-05-02T13:56:03;18.40;41.60
6627;DHT22;3349;49.830;8.748;2023-05-02T13:58:30;18.50;40.30
6627;DHT22;3349;49.830;8.748;2023-05-02T14:00:57;18.50;41.20
6627;DHT22;3349;49.830;8.748;2023-05-02T14:03:25;18.70;39.00
6627;DHT22;3349;49.830;8.748;2023-05-02T14:05:52;18.50;38.80
6627;DHT22;3349;49.830;8.748;2023-05-02T14:08:20;18.60;38.90
6627;DHT22;3349;49.830;8.748;2023-05-02T14:10:47;18.70;39.00
6627;DHT22;3349;49.830;8.748;2023-05-02T14:13:13;18.50;38.80
6627;DHT22;3349;49.830;8.748;2023-05-02T14:15:40;18.50;38.90
6627;DHT22;3349;49.830;8.748;2023-05-02T14:18:07;18.80;41.00
6627;DHT22;3349;49.830;8.748;2023-05-02T14:20:34;18.90;39.20
6627;DHT22;3349;49.830;8.748;2023-05-02T14:23:01;18.70;39.00
6627;DHT22;3349;49.830;8.748;2023-05-02T14:25:29;19.00;39.20
6627;DHT22;3349;49.830;8.748;2023-05-02T14:27:55;19.10;39.30
6627;DHT22;3349;49.830;8.748;2023-05-02T14:30:22;19.10;39.30
6627;DHT22;3349;49.830;8.748;2023-05-02T14:32:49;19.00;39.30
6627;DHT22;3349;49.830;8.748;2023-05-02T14:35:16;18.80;39.10
6627;DHT22;3349;49.830;8.748;2023-05-02T14:37:43;18.40;39.90
6627;DHT22;3349;49.830;8.748;2023-05-02T14:40:10;18.00;41.10
6627;DHT22;3349;49.830;8.748;2023-05-02T14:42:39;17.80;42.40
6627;DHT22;3349;49.830;8.748;2023-05-02T14:45:07;17.60;43.20
6627;DHT22;3349;49.830;8.748;2023-05-02T14:47:35;17.50;44.80
6627;DHT22;3349;49.830;8.748;2023-05-02T14:50:02;17.20;46.20
6627;DHT22;3349;49.830;8.748;2023-05-02T14:52:29;17.00;49.90
6627;DHT22;3349;49.830;8.748;2023-05-02T14:54:58;16.90;52.50
6627;DHT22;3349;49.830;8.748;2023-05-02T14:57:24;16.60;57.50
6627;DHT22;3349;49.830;8.748;2023-05-02T14:59:53;16.40;57.10
6627;DHT22;3349;49.830;8.748;2023-05-02T15:02:20;16.20;59.50
6627;DHT22;3349;49.830;8.748;2023-05-02T15:04:47;16.20;60.80
6627;DHT22;3349;49.830;8.748;2023-05-02T15:07:13;16.20;59.70
6627;DHT22;3349;49.830;8.748;2023-05-02T15:09:40;16.30;56.10
6627;DHT22;3349;49.830;8.748;2023-05-02T15:12:07;16.40;56.20
6627;DHT22;3349;49.830;8.748;2023-05-02T15:14:34;16.50;55.70
6627;DHT22;3349;49.830;8.748;2023-05-02T15:17:02;16.50;56.00
6627;DHT22;3349;49.830;8.748;2023-05-02T15:19:29;16.60;55.90
6627;DHT22;3349;49.830;8.748;2023-05-02T15:21:55;16.70;54.10
6627;DHT22;3349;49.830;8.748;2023-05-02T15:24:22;16.80;52.80
6627;DHT22;3349;49.830;8.748;2023-05-02T15:26:49;16.90;51.40
6627;DHT22;3349;49.830;8.748;2023-05-02T15:29:18;16.90;50.90
6627;DHT22;3349;49.830;8.748;2023-05-02T15:31:45;16.90;50.30
6627;DHT22;3349;49.830;8.748;2023-05-02T15:34:13;17.00;49.90
6627;DHT22;3349;49.830;8.748;2023-05-02T15:36:40;17.00;50.20
6627;DHT22;3349;49.830;8.748;2023-05-02T15:39:07;17.10;50.70
6627;DHT22;3349;49.830;8.748;2023-05-02T15:41:34;17.10;49.10
6627;DHT22;3349;49.830;8.748;2023-05-02T15:44:01;17.20;48.60
6627;DHT22;3349;49.830;8.748;2023-05-02T15:46:27;17.40;49.40
6627;DHT22;3349;49.830;8.748;2023-05-02T15:48:54;17.70;46.70
6627;DHT22;3349;49.830;8.748;2023-05-02T15:51:22;17.90;44.60
6627;DHT22;3349;49.830;8.748;2023-05-02T15:53:49;18.10;44.00
6627;DHT22;3349;49.830;8.748;2023-05-02T15:56:17;18.20;43.70
6627;DHT22;3349;49.830;8.748;2023-05-02T15:58:45;18.10;43.20
6627;DHT22;3349;49.830;8.748;2023-05-02T16:01:12;17.90;42.50
6627;DHT22;3349;49.830;8.748;2023-05-02T16:03:39;17.70;42.20
6627;DHT22;3349;49.830;8.748;2023-05-02T16:06:06;17.50;41.20
6627;DHT22;3349;49.830;8.748;2023-05-02T16:08:34;17.30;42.00
6627;DHT22;3349;49.830;8.748;2023-05-02T16:11:01;17.30;42.40
6627;DHT22;3349;49.830;8.748;2023-05-02T16:13:28;17.10;41.90
6627;DHT22;3349;49.830;8.748;2023-05-02T16:15:55;17.00;41.60
6627;DHT22;3349;49.830;8.748;2023-05-02T16:18:22;17.10;41.80
6627;DHT22;3349;49.830;8.748;2023-05-02T16:20:53;17.00;41.70